createdAt,value
2023-03-18T00:00:25.040Z,18.12
2023-03-18T00:01:25.021Z,18.16
2023-03-18T00:02:25.078Z,18.16
2023-03-18T00:03:25.117Z,18.16
2023-03-18T00:04:25.029Z,18.16
2023-03-18T00:05:24.984Z,18.17
2023-03-18T00:06:24.979Z,18.17
2023-03-18T00:07:24.996Z,18.16
2023-03-18T00:08:24.977Z,18.16
2023-03-18T00:09:25.042Z,18.17
2023-03-18T00:10:25.009Z,18.17
2023-03-18T00:11:24.981Z,18.22
2023-03-18T00:12:24.948Z,18.17
2023-03-18T00:13:24.937Z,18.24
2023-03-18T00:14:24.903Z,18.20
2023-03-18T00:15:24.926Z,18.20
2023-03-18T00:16:24.993Z,18.21
2023-03-18T00:17:24.911Z,18.24
2023-03-18T00:18:24.956Z,18.09
2023-03-18T00:19:24.839Z,18.22
2023-03-18T00:20:24.811Z,18.22
2023-03-18T00:21:24.825Z,18.25
2023-03-18T00:22:24.836Z,18.21
2023-03-18T00:23:24.815Z,18.27
2023-03-18T00:24:24.835Z,18.27
2023-03-18T00:25:24.745Z,18.22
2023-03-18T00:26:24.733Z,18.21
2023-03-18T00:27:24.735Z,18.25
2023-03-18T00:28:24.753Z,18.19
2023-03-18T00:29:24.682Z,18.27
2023-03-18T00:30:24.677Z,18.22
2023-03-18T00:31:24.737Z,18.25
2023-03-18T00:32:24.653Z,18.27
2023-03-18T00:33:24.651Z,18.27
2023-03-18T00:34:24.647Z,18.28
2023-03-18T00:35:24.674Z,18.33
2023-03-18T00:36:24.601Z,18.27
2023-03-18T00:37:24.616Z,18.28
2023-03-18T00:38:24.617Z,18.28
2023-03-18T00:39:24.569Z,18.30
2023-03-18T00:40:24.553Z,18.28
2023-03-18T00:41:24.538Z,18.35
2023-03-18T00:42:24.546Z,18.26
2023-03-18T00:43:24.554Z,18.30
2023-03-18T00:44:24.530Z,18.27
2023-03-18T00:45:24.515Z,18.32
2023-03-18T00:46:24.606Z,18.30
2023-03-18T00:47:24.466Z,18.30
2023-03-18T00:48:24.464Z,18.30
2023-03-18T00:49:24.445Z,18.33
2023-03-18T00:50:24.503Z,18.32
2023-03-18T00:51:24.426Z,18.32
2023-03-18T00:52:24.443Z,18.33
2023-03-18T00:53:24.574Z,18.36
2023-03-18T00:54:24.405Z,18.41
2023-03-18T00:55:24.386Z,18.33
2023-03-18T00:56:24.412Z,18.33
2023-03-18T00:57:24.352Z,18.38
2023-03-18T00:58:24.392Z,18.36
2023-03-18T00:59:24.365Z,18.27
2023-03-18T01:00:24.326Z,18.40
2023-03-18T01:01:24.356Z,18.38
2023-03-18T01:02:24.343Z,18.40
2023-03-18T01:03:24.304Z,18.40
2023-03-18T01:04:24.322Z,18.41
2023-03-18T01:05:24.265Z,18.35
2023-03-18T01:06:24.249Z,18.43
2023-03-18T01:07:24.237Z,18.38
2023-03-18T01:08:24.269Z,18.38
2023-03-18T01:09:24.213Z,18.35
2023-03-18T01:10:24.209Z,18.43
2023-03-18T01:11:24.253Z,18.36
2023-03-18T01:12:24.231Z,18.37
2023-03-18T01:13:24.197Z,18.41
2023-03-18T01:14:24.175Z,18.43
2023-03-18T01:15:24.151Z,18.38
2023-03-18T01:16:24.155Z,18.43
2023-03-18T01:17:24.117Z,18.40
2023-03-18T01:18:24.133Z,18.41
2023-03-18T01:19:24.092Z,18.32
2023-03-18T01:20:24.070Z,18.38
2023-03-18T01:21:24.126Z,18.37
2023-03-18T01:22:24.028Z,18.35
2023-03-18T01:23:24.014Z,18.37
2023-03-18T01:24:24.017Z,18.41
2023-03-18T01:25:24.009Z,18.41
2023-03-18T01:26:23.982Z,18.40
2023-03-18T01:27:23.933Z,18.38
2023-03-18T01:28:23.909Z,18.38
2023-03-18T01:29:23.907Z,18.43
2023-03-18T01:30:23.887Z,18.40
2023-03-18T01:31:23.942Z,18.40
2023-03-18T01:32:23.880Z,18.48
2023-03-18T01:33:23.828Z,18.35
2023-03-18T01:34:23.825Z,18.43
2023-03-18T01:35:23.793Z,18.41
2023-03-18T01:36:23.764Z,18.41
2023-03-18T01:37:23.746Z,18.46
2023-03-18T01:38:23.761Z,18.46
2023-03-18T01:39:23.745Z,18.44
2023-03-18T01:40:23.740Z,18.44
2023-03-18T01:41:23.696Z,18.38
2023-03-18T01:42:23.645Z,18.37
2023-03-18T01:43:26.335Z,18.36
2023-03-18T01:44:23.645Z,18.41
2023-03-18T01:45:23.614Z,18.38
2023-03-18T01:46:23.624Z,18.43
2023-03-18T01:47:23.577Z,18.38
2023-03-18T01:48:23.569Z,18.43
2023-03-18T01:49:23.625Z,18.41
2023-03-18T01:50:23.518Z,18.44
2023-03-18T01:51:23.554Z,18.46
2023-03-18T01:52:23.541Z,18.38
2023-03-18T01:53:23.508Z,18.46
2023-03-18T01:54:23.487Z,18.46
2023-03-18T01:55:23.541Z,18.44
2023-03-18T01:56:23.433Z,18.43
2023-03-18T01:57:23.427Z,18.44
2023-03-18T01:58:23.421Z,18.46
2023-03-18T01:59:23.390Z,18.41
2023-03-18T02:00:23.392Z,18.43
2023-03-18T02:01:23.434Z,18.40
2023-03-18T02:02:23.330Z,18.44
2023-03-18T02:03:23.335Z,18.41
2023-03-18T02:04:23.333Z,18.41
2023-03-18T02:05:23.332Z,18.41
2023-03-18T02:06:23.272Z,18.43
2023-03-18T02:07:23.266Z,18.38
2023-03-18T02:08:23.236Z,18.41
2023-03-18T02:09:23.267Z,18.41
2023-03-18T02:10:23.258Z,18.44
2023-03-18T02:11:23.229Z,18.41
2023-03-18T02:12:23.202Z,18.32
2023-03-18T02:13:23.215Z,18.39
2023-03-18T02:14:23.175Z,18.43
2023-03-18T02:15:23.149Z,18.41
2023-03-18T02:16:23.262Z,18.32
2023-03-18T02:17:23.122Z,18.33
2023-03-18T02:18:23.121Z,18.39
2023-03-18T02:19:23.143Z,18.44
2023-03-18T02:20:23.088Z,18.33
2023-03-18T02:21:23.173Z,18.30
2023-03-18T02:22:23.075Z,18.32
2023-03-18T02:23:23.062Z,18.36
2023-03-18T02:24:23.040Z,18.33
2023-03-18T02:25:23.040Z,18.38
2023-03-18T02:26:23.029Z,18.43
2023-03-18T02:27:23.030Z,18.44
2023-03-18T02:28:22.998Z,18.30
2023-03-18T02:29:23.046Z,18.41
2023-03-18T02:30:22.985Z,18.35
2023-03-18T02:31:23.071Z,18.46
2023-03-18T02:32:22.944Z,18.39
2023-03-18T02:33:22.918Z,18.43
2023-03-18T02:34:22.988Z,18.43
2023-03-18T02:35:22.948Z,18.39
2023-03-18T02:36:22.869Z,18.46
2023-03-18T02:37:22.883Z,18.43
2023-03-18T02:38:22.845Z,18.47
2023-03-18T02:39:22.832Z,18.41
2023-03-18T02:40:22.846Z,18.36
2023-03-18T02:41:22.796Z,18.38
2023-03-18T02:42:22.789Z,18.41
2023-03-18T02:43:22.854Z,18.35
2023-03-18T02:44:22.759Z,18.41
2023-03-18T02:45:22.769Z,18.44
2023-03-18T02:46:22.797Z,18.41
2023-03-18T02:47:22.711Z,18.43
2023-03-18T02:48:22.729Z,18.43
2023-03-18T02:49:22.692Z,18.44
2023-03-18T02:50:22.679Z,18.44
2023-03-18T02:51:22.677Z,18.39
2023-03-18T02:52:22.671Z,18.44
2023-03-18T02:53:22.608Z,18.46
2023-03-18T02:54:22.607Z,18.46
2023-03-18T02:55:22.604Z,18.49
2023-03-18T02:56:22.618Z,18.41
2023-03-18T02:57:22.575Z,18.30
2023-03-18T02:58:22.556Z,18.20
2023-03-18T02:59:22.579Z,18.12
2023-03-18T03:00:22.550Z,18.07
2023-03-18T03:01:22.529Z,18.06
2023-03-18T03:02:22.546Z,17.95
2023-03-18T03:03:22.590Z,17.85
2023-03-18T03:04:22.528Z,17.77
2023-03-18T03:05:22.456Z,17.75
2023-03-18T03:06:22.463Z,17.75
2023-03-18T03:07:22.421Z,17.64
2023-03-18T03:08:22.449Z,17.63
2023-03-18T03:09:22.418Z,17.60
2023-03-18T03:10:22.395Z,17.54
2023-03-18T03:11:22.391Z,17.53
2023-03-18T03:12:22.391Z,17.52
2023-03-18T03:13:22.374Z,17.48
2023-03-18T03:14:22.399Z,17.47
2023-03-18T03:15:24.448Z,17.42
2023-03-18T03:16:22.345Z,17.43
2023-03-18T03:17:22.361Z,17.42
2023-03-18T03:18:22.414Z,17.43
2023-03-18T03:19:22.309Z,17.36
2023-03-18T03:20:22.303Z,17.34
2023-03-18T03:21:22.319Z,17.27
2023-03-18T03:22:22.285Z,17.33
2023-03-18T03:23:22.300Z,17.36
2023-03-18T03:24:22.285Z,17.33
2023-03-18T03:25:22.247Z,17.25
2023-03-18T03:26:22.254Z,17.31
2023-03-18T03:27:22.283Z,17.25
2023-03-18T03:28:22.310Z,17.28
2023-03-18T03:29:22.366Z,17.25
2023-03-18T03:30:22.413Z,17.28
2023-03-18T03:31:22.488Z,17.22
2023-03-18T03:32:22.480Z,17.18
2023-03-18T03:33:22.415Z,17.16
2023-03-18T03:34:22.368Z,17.26
2023-03-18T03:35:22.387Z,17.15
2023-03-18T03:36:22.350Z,17.18
2023-03-18T03:37:22.355Z,17.23
2023-03-18T03:38:22.351Z,17.24
2023-03-18T03:39:22.357Z,17.23
2023-03-18T03:40:22.391Z,17.23
2023-03-18T03:41:22.334Z,17.16
2023-03-18T03:42:22.325Z,17.23
2023-03-18T03:43:22.323Z,17.19
2023-03-18T03:44:22.288Z,17.18
2023-03-18T03:45:22.345Z,17.18
2023-03-18T03:46:22.335Z,17.22
2023-03-18T03:47:22.296Z,17.18
2023-03-18T03:48:22.320Z,17.22
2023-03-18T03:49:22.307Z,17.17
2023-03-18T03:50:22.362Z,17.17
2023-03-18T03:51:22.267Z,17.12
2023-03-18T03:52:22.297Z,17.25
2023-03-18T03:53:22.273Z,17.19
2023-03-18T03:54:22.289Z,17.20
2023-03-18T03:55:22.232Z,17.17
2023-03-18T03:56:22.246Z,17.22
2023-03-18T03:57:22.254Z,17.17
2023-03-18T03:58:22.253Z,17.25
2023-03-18T03:59:22.237Z,17.25
2023-03-18T04:00:22.238Z,17.22
2023-03-18T04:01:22.236Z,17.28
2023-03-18T04:02:22.215Z,17.22
2023-03-18T04:03:22.240Z,17.23
2023-03-18T04:04:22.305Z,17.23
2023-03-18T04:05:22.228Z,17.23
2023-03-18T04:06:22.188Z,17.23
2023-03-18T04:07:22.211Z,17.20
2023-03-18T04:08:22.188Z,17.21
2023-03-18T04:09:22.188Z,17.28
2023-03-18T04:10:22.185Z,17.20
2023-03-18T04:11:22.221Z,17.24
2023-03-18T04:12:22.179Z,17.20
2023-03-18T04:13:22.187Z,17.28
2023-03-18T04:14:22.159Z,17.32
2023-03-18T04:15:22.181Z,17.27
2023-03-18T04:16:22.233Z,17.23
2023-03-18T04:17:22.163Z,17.23
2023-03-18T04:18:22.182Z,17.27
2023-03-18T04:19:22.146Z,17.27
2023-03-18T04:20:22.161Z,17.21
2023-03-18T04:21:22.484Z,17.26
2023-03-18T04:22:22.142Z,17.26
2023-03-18T04:23:22.160Z,17.27
2023-03-18T04:24:22.191Z,17.29
2023-03-18T04:25:22.148Z,17.23
2023-03-18T04:26:22.211Z,17.25
2023-03-18T04:27:22.120Z,17.25
2023-03-18T04:28:22.124Z,17.30
2023-03-18T04:29:22.125Z,17.29
2023-03-18T04:30:22.114Z,17.32
2023-03-18T04:31:22.215Z,17.29
2023-03-18T04:32:22.104Z,17.30
2023-03-18T04:33:22.108Z,17.30
2023-03-18T04:34:22.108Z,17.32
2023-03-18T04:35:22.141Z,17.35
2023-03-18T04:36:22.098Z,17.32
2023-03-18T04:37:22.098Z,17.36
2023-03-18T04:38:22.064Z,17.32
2023-03-18T04:39:22.131Z,17.33
2023-03-18T04:40:22.099Z,17.29
2023-03-18T04:41:22.085Z,17.38
2023-03-18T04:42:22.100Z,17.44
2023-03-18T04:43:22.088Z,17.28
2023-03-18T04:44:22.055Z,17.29
2023-03-18T04:45:22.045Z,17.36
2023-03-18T04:46:22.148Z,17.38
2023-03-18T04:47:22.047Z,17.36
2023-03-18T04:48:22.050Z,17.35
2023-03-18T04:49:22.058Z,17.40
2023-03-18T04:50:22.072Z,17.40
2023-03-18T04:51:22.129Z,17.36
2023-03-18T04:52:22.094Z,17.41
2023-03-18T04:53:22.106Z,17.42
2023-03-18T04:54:22.139Z,17.40
2023-03-18T04:55:22.094Z,17.44
2023-03-18T04:56:22.083Z,17.34
2023-03-18T04:57:22.118Z,17.37
2023-03-18T04:58:22.098Z,17.45
2023-03-18T04:59:22.099Z,17.44
2023-03-18T05:00:22.093Z,17.42
2023-03-18T05:01:22.134Z,17.37
2023-03-18T05:02:22.126Z,17.45
2023-03-18T05:03:22.063Z,17.41
2023-03-18T05:04:22.073Z,17.45
2023-03-18T05:05:22.067Z,17.44
2023-03-18T05:06:22.064Z,17.45
2023-03-18T05:07:22.058Z,17.50
2023-03-18T05:08:22.091Z,17.48
2023-03-18T05:09:22.061Z,17.40
2023-03-18T05:10:22.056Z,17.45
2023-03-18T05:11:22.114Z,17.47
2023-03-18T05:12:22.062Z,17.43
2023-03-18T05:13:22.060Z,17.55
2023-03-18T05:14:22.053Z,17.51
2023-03-18T05:15:22.082Z,17.48
2023-03-18T05:16:22.156Z,17.45
2023-03-18T05:17:22.030Z,17.40
2023-03-18T05:18:22.079Z,17.43
2023-03-18T05:19:22.036Z,17.45
2023-03-18T05:20:22.036Z,17.45
2023-03-18T05:21:21.998Z,17.43
2023-03-18T05:22:22.053Z,17.45
2023-03-18T05:23:22.024Z,17.56
2023-03-18T05:24:22.024Z,17.51
2023-03-18T05:25:22.016Z,17.43
2023-03-18T05:26:22.007Z,17.48
2023-03-18T05:27:22.030Z,17.50
2023-03-18T05:28:22.006Z,17.46
2023-03-18T05:29:21.995Z,17.48
2023-03-18T05:30:22.006Z,17.50
2023-03-18T05:31:22.042Z,17.52
2023-03-18T05:32:22.030Z,17.52
2023-03-18T05:33:23.234Z,17.51
2023-03-18T05:34:21.996Z,17.51
2023-03-18T05:35:22.041Z,17.50
2023-03-18T05:36:21.996Z,17.52
2023-03-18T05:37:22.001Z,17.50
2023-03-18T05:38:21.968Z,17.50
2023-03-18T05:39:21.948Z,17.52
2023-03-18T05:40:21.978Z,17.48
2023-03-18T05:41:21.958Z,17.45
2023-03-18T05:42:21.931Z,17.54
2023-03-18T05:43:21.967Z,17.62
2023-03-18T05:44:21.934Z,17.57
2023-03-18T05:45:21.952Z,17.46
2023-03-18T05:46:21.961Z,17.57
2023-03-18T05:47:21.936Z,17.59
2023-03-18T05:48:21.896Z,17.57
2023-03-18T05:49:21.903Z,17.51
2023-03-18T05:50:21.937Z,17.61
2023-03-18T05:51:21.933Z,17.56
2023-03-18T05:52:21.883Z,17.56
2023-03-18T05:53:21.869Z,17.57
2023-03-18T05:54:21.860Z,17.62
2023-03-18T05:55:21.862Z,17.56
2023-03-18T05:56:21.854Z,17.60
2023-03-18T05:57:21.865Z,17.63
2023-03-18T05:58:21.821Z,17.63
2023-03-18T05:59:21.820Z,17.68
2023-03-18T06:00:21.827Z,17.57
2023-03-18T06:01:21.789Z,17.65
2023-03-18T06:02:21.822Z,17.59
2023-03-18T06:03:21.867Z,17.67
2023-03-18T06:04:21.791Z,17.71
2023-03-18T06:05:21.776Z,17.63
2023-03-18T06:06:21.768Z,17.63
2023-03-18T06:07:21.803Z,17.59
2023-03-18T06:08:21.762Z,17.68
2023-03-18T06:09:21.749Z,17.67
2023-03-18T06:10:21.749Z,17.65
2023-03-18T06:11:21.772Z,17.70
2023-03-18T06:12:21.756Z,17.71
2023-03-18T06:13:21.741Z,17.68
2023-03-18T06:14:21.732Z,17.65
2023-03-18T06:15:21.748Z,17.73
2023-03-18T06:16:21.732Z,17.70
2023-03-18T06:17:21.721Z,17.70
2023-03-18T06:18:21.707Z,17.70
2023-03-18T06:19:21.742Z,17.73
2023-03-18T06:20:21.687Z,17.73
2023-03-18T06:21:21.675Z,17.70
2023-03-18T06:22:22.544Z,17.71
2023-03-18T06:23:21.694Z,17.74
2023-03-18T06:24:21.662Z,17.78
2023-03-18T06:25:21.683Z,17.73
2023-03-18T06:26:21.635Z,17.74
2023-03-18T06:27:21.678Z,17.74
2023-03-18T06:28:21.702Z,17.82
2023-03-18T06:29:21.622Z,17.81
2023-03-18T06:30:21.626Z,17.78
2023-03-18T06:31:21.676Z,17.79
2023-03-18T06:32:21.656Z,17.73
2023-03-18T06:33:21.586Z,17.78
2023-03-18T06:34:21.597Z,17.81
2023-03-18T06:35:21.551Z,17.81
2023-03-18T06:36:21.568Z,17.81
2023-03-18T06:37:21.582Z,17.78
2023-03-18T06:38:21.543Z,17.87
2023-03-18T06:39:21.519Z,17.81
2023-03-18T06:40:21.534Z,17.82
2023-03-18T06:41:21.558Z,17.80
2023-03-18T06:42:21.577Z,17.82
2023-03-18T06:43:21.556Z,17.92
2023-03-18T06:44:21.519Z,17.85
2023-03-18T06:45:21.522Z,17.87
2023-03-18T06:46:21.514Z,17.89
2023-03-18T06:47:21.539Z,17.90
2023-03-18T06:48:21.562Z,17.92
2023-03-18T06:49:21.506Z,17.87
2023-03-18T06:50:21.540Z,17.89
2023-03-18T06:51:21.527Z,17.84
2023-03-18T06:52:21.494Z,17.92
2023-03-18T06:53:21.540Z,17.89
2023-03-18T06:54:21.513Z,17.92
2023-03-18T06:55:21.455Z,17.94
2023-03-18T06:56:21.473Z,17.93
2023-03-18T06:57:21.446Z,17.89
2023-03-18T06:58:21.456Z,17.98
2023-03-18T06:59:21.456Z,17.97
2023-03-18T07:00:21.512Z,17.95
2023-03-18T07:01:21.459Z,17.90
2023-03-18T07:02:21.461Z,18.00
2023-03-18T07:03:21.422Z,18.01
2023-03-18T07:04:21.408Z,17.98
2023-03-18T07:05:21.393Z,17.95
2023-03-18T07:06:21.423Z,17.98
2023-03-18T07:07:21.361Z,18.03
2023-03-18T07:08:21.361Z,18.00
2023-03-18T07:09:21.338Z,18.00
2023-03-18T07:10:21.340Z,17.96
2023-03-18T07:11:21.323Z,18.06
2023-03-18T07:12:21.349Z,18.03
2023-03-18T07:13:21.341Z,18.01
2023-03-18T07:14:21.330Z,18.08
2023-03-18T07:15:21.337Z,18.08
2023-03-18T07:16:21.383Z,18.06
2023-03-18T07:17:21.316Z,18.00
2023-03-18T07:18:21.355Z,18.08
2023-03-18T07:19:21.301Z,18.03
2023-03-18T07:20:21.282Z,18.05
2023-03-18T07:21:21.265Z,18.06
2023-03-18T07:22:21.297Z,18.05
2023-03-18T07:23:21.297Z,18.03
2023-03-18T07:24:21.398Z,18.06
2023-03-18T07:25:22.906Z,18.11
2023-03-18T07:26:21.251Z,18.14
2023-03-18T07:27:21.215Z,18.09
2023-03-18T07:28:21.223Z,18.00
2023-03-18T07:29:21.196Z,18.03
2023-03-18T07:30:21.198Z,18.08
2023-03-18T07:31:21.220Z,18.00
2023-03-18T07:32:21.177Z,18.08
2023-03-18T07:33:21.189Z,18.08
2023-03-18T07:34:21.165Z,18.02
2023-03-18T07:35:21.176Z,17.99
2023-03-18T07:36:21.162Z,18.01
2023-03-18T07:37:21.135Z,17.97
2023-03-18T07:38:21.145Z,18.03
2023-03-18T07:39:21.128Z,17.99
2023-03-18T07:40:21.123Z,17.96
2023-03-18T07:41:21.086Z,17.99
2023-03-18T07:42:21.102Z,18.04
2023-03-18T07:43:21.095Z,17.96
2023-03-18T07:44:21.069Z,17.93
2023-03-18T07:45:21.092Z,17.98
2023-03-18T07:46:21.085Z,17.96
2023-03-18T07:47:21.111Z,17.93
2023-03-18T07:48:21.058Z,17.98
2023-03-18T07:49:21.035Z,17.95
2023-03-18T07:50:21.069Z,17.85
2023-03-18T07:51:21.016Z,17.88
2023-03-18T07:52:21.089Z,17.91
2023-03-18T07:53:21.044Z,17.87
2023-03-18T07:54:21.025Z,17.88
2023-03-18T07:55:21.017Z,17.84
2023-03-18T07:56:21.026Z,17.82
2023-03-18T07:57:21.071Z,17.82
2023-03-18T07:58:21.006Z,17.89
2023-03-18T07:59:21.017Z,17.87
2023-03-18T08:00:21.115Z,17.85
2023-03-18T08:01:21.009Z,17.85
2023-03-18T08:02:21.098Z,17.85
2023-03-18T08:03:21.005Z,17.81
2023-03-18T08:04:21.170Z,17.79
2023-03-18T08:05:20.985Z,17.82
2023-03-18T11:31:18.689Z,17.65
2023-03-18T11:48:18.237Z,17.63
2023-03-18T11:49:18.233Z,17.61
2023-03-18T11:50:18.204Z,17.68
2023-03-18T11:51:18.224Z,17.63
2023-03-18T11:52:18.175Z,17.57
2023-03-18T11:53:18.149Z,17.60
2023-03-18T11:54:18.093Z,17.63
2023-03-18T11:55:18.070Z,17.60
2023-03-18T11:56:18.081Z,17.53
2023-03-18T11:57:18.063Z,17.57
2023-03-18T11:58:18.005Z,17.57
2023-03-18T11:59:17.970Z,17.58
2023-03-18T12:00:17.962Z,17.60
2023-03-18T12:01:17.934Z,17.60
2023-03-18T12:02:17.930Z,17.57
2023-03-18T12:03:17.871Z,17.57
2023-03-18T12:04:17.838Z,17.59
2023-03-18T12:05:17.856Z,17.56
2023-03-18T12:06:17.799Z,17.61
2023-03-18T12:07:17.755Z,17.57
2023-03-18T12:08:17.738Z,17.54
2023-03-18T12:09:17.758Z,17.59
2023-03-18T12:10:17.777Z,17.57
2023-03-18T12:12:17.652Z,17.57
2023-03-18T12:13:19.028Z,17.54
2023-03-18T12:14:17.656Z,17.54
2023-03-18T12:15:17.609Z,17.48
2023-03-18T12:16:17.637Z,17.46
2023-03-18T12:17:17.561Z,17.56
2023-03-18T12:18:17.522Z,17.62
2023-03-18T12:19:17.463Z,17.56
2023-03-18T12:20:17.461Z,17.59
2023-03-18T12:21:17.436Z,17.58
2023-03-18T12:22:17.440Z,17.58
2023-03-18T12:23:17.377Z,17.58
2023-03-18T12:24:17.380Z,17.53
2023-03-18T12:25:17.350Z,17.47
2023-03-18T12:26:17.334Z,17.50
2023-03-18T12:27:17.321Z,17.55
2023-03-18T12:28:17.308Z,17.55
2023-03-18T12:29:17.260Z,17.48
2023-03-18T12:30:17.246Z,17.56
2023-03-18T12:31:17.263Z,17.55
2023-03-18T12:32:17.230Z,17.56
2023-03-18T12:33:17.176Z,17.52
2023-03-18T12:34:17.127Z,17.49
2023-03-18T12:35:18.862Z,17.53
2023-03-18T12:36:17.090Z,17.57
2023-03-18T12:37:17.066Z,17.57
2023-03-18T12:38:17.035Z,17.55
2023-03-18T12:39:17.010Z,17.60
2023-03-18T12:40:17.047Z,17.58
2023-03-18T12:41:16.981Z,17.55
2023-03-18T12:42:16.948Z,17.57
2023-03-18T12:43:16.912Z,17.54
2023-03-18T12:44:16.888Z,17.50
2023-03-18T12:45:16.887Z,17.51
2023-03-18T12:46:17.022Z,17.56
2023-03-18T12:47:16.811Z,17.60
2023-03-18T12:48:16.811Z,17.56
2023-03-18T12:49:16.849Z,17.57
2023-03-18T12:50:16.898Z,17.52
2023-03-18T12:51:16.776Z,17.57
2023-03-18T12:52:16.700Z,17.49
2023-03-18T12:53:16.772Z,17.46
2023-03-18T12:54:16.644Z,17.54
2023-03-18T12:55:16.636Z,17.56
2023-03-18T12:56:16.632Z,17.56
2023-03-18T12:57:16.571Z,17.56
2023-03-18T12:58:16.552Z,17.53
2023-03-18T12:59:16.525Z,17.50
2023-03-18T13:00:16.660Z,17.54
2023-03-18T13:01:16.610Z,17.53
2023-03-18T13:02:16.457Z,17.50
2023-03-18T13:03:16.413Z,17.47
2023-03-18T13:04:16.387Z,17.51
2023-03-18T13:05:16.366Z,17.53
2023-03-18T13:06:16.341Z,17.53
2023-03-18T13:07:16.367Z,17.47
2023-03-18T13:08:16.326Z,17.50
2023-03-18T13:09:16.313Z,17.50
2023-03-18T13:10:16.232Z,17.47
2023-03-18T13:11:16.242Z,17.47
2023-03-18T13:12:16.213Z,17.56
2023-03-18T13:13:16.164Z,17.53
2023-03-18T13:14:16.136Z,17.56
2023-03-18T13:15:16.191Z,17.53
2023-03-18T13:16:16.107Z,17.44
2023-03-18T13:17:16.157Z,17.50
2023-03-18T13:18:16.001Z,17.54
2023-03-18T13:19:16.014Z,17.50
2023-03-18T13:20:15.968Z,17.54
2023-03-18T13:21:15.943Z,17.54
2023-03-18T13:22:15.897Z,17.54
2023-03-18T13:23:15.874Z,17.47
2023-03-18T13:24:15.838Z,17.55
2023-03-18T13:25:15.804Z,17.51
2023-03-18T13:26:15.795Z,17.56
2023-03-18T13:27:15.785Z,17.51
2023-03-18T13:28:15.769Z,17.56
2023-03-18T13:29:15.719Z,17.49
2023-03-18T13:30:15.715Z,17.54
2023-03-18T13:31:15.769Z,17.53
2023-03-18T13:32:15.649Z,17.53
2023-03-18T13:33:15.661Z,17.55
2023-03-18T13:34:15.595Z,17.51
2023-03-18T13:35:15.550Z,17.48
2023-03-18T13:36:15.605Z,17.56
2023-03-18T13:37:15.534Z,17.53
2023-03-18T13:38:15.455Z,17.53
2023-03-18T13:39:15.467Z,17.50
2023-03-18T13:40:15.388Z,17.46
2023-03-18T13:41:15.761Z,17.52
2023-03-18T13:42:15.373Z,17.52
2023-03-18T13:43:15.679Z,17.49
2023-03-18T13:44:15.425Z,17.51
2023-03-18T13:45:15.734Z,17.46
2023-03-18T14:01:15.343Z,17.36
2023-03-18T14:02:15.524Z,17.36
2023-03-18T14:03:15.423Z,17.38
2023-03-18T14:04:15.398Z,17.35
2023-03-18T14:05:15.424Z,17.29
2023-03-18T14:06:15.829Z,17.30
2023-03-18T14:07:15.468Z,17.37
2023-03-18T14:08:15.487Z,17.35
2023-03-18T14:09:15.492Z,17.34
2023-03-18T14:10:19.159Z,17.40
2023-03-18T14:11:15.497Z,17.32
2023-03-18T14:12:15.486Z,17.29
2023-03-18T14:13:15.473Z,17.32
2023-03-18T14:14:15.423Z,17.30
2023-03-18T14:15:15.409Z,17.25
2023-03-18T14:16:15.483Z,17.28
2023-03-18T14:17:15.325Z,17.20
2023-03-18T14:18:15.291Z,17.20
2023-03-18T14:19:15.289Z,17.20
2023-03-18T14:20:15.243Z,17.12
2023-03-18T14:21:15.211Z,17.12
2023-03-18T14:22:15.249Z,17.11
2023-03-18T14:23:15.148Z,17.14
2023-03-18T14:24:15.132Z,17.18
2023-03-18T14:25:15.079Z,17.19
2023-03-18T14:26:15.044Z,17.13
2023-03-18T14:27:15.008Z,17.19
2023-03-18T14:28:14.994Z,17.13
2023-03-18T14:29:14.959Z,17.14
2023-03-18T14:30:14.929Z,17.13
2023-03-18T14:31:14.904Z,17.16
2023-03-18T14:32:14.866Z,17.15
2023-03-18T14:33:14.885Z,17.20
2023-03-18T14:34:14.840Z,17.18
2023-03-18T14:35:14.778Z,17.17
2023-03-18T14:36:14.764Z,17.17
2023-03-18T14:37:14.715Z,17.13
2023-03-18T14:38:14.687Z,17.06
2023-03-18T14:39:14.608Z,17.03
2023-03-18T14:40:14.619Z,17.01
2023-03-18T14:41:14.532Z,17.11
2023-03-18T14:42:14.491Z,17.17
2023-03-18T14:43:14.503Z,17.11
2023-03-18T14:44:14.425Z,17.07
2023-03-18T14:45:14.432Z,17.11
2023-03-18T14:46:14.461Z,17.09
2023-03-18T14:47:14.966Z,16.98
2023-03-18T14:48:14.328Z,17.09
2023-03-18T14:49:14.967Z,17.08
2023-03-18T14:50:14.322Z,17.09
2023-03-18T14:51:14.193Z,17.03
2023-03-18T14:52:14.189Z,17.09
2023-03-18T14:53:14.225Z,17.12
2023-03-18T14:54:14.097Z,17.09
2023-03-18T14:55:14.060Z,17.14
2023-03-18T14:56:14.033Z,17.06
2023-03-18T14:57:14.048Z,17.09
2023-03-18T14:58:14.707Z,17.06
2023-03-18T14:59:13.954Z,17.13
2023-03-18T15:00:13.954Z,17.11
2023-03-18T15:01:14.210Z,17.06
2023-03-18T15:02:13.853Z,17.05
2023-03-18T15:03:13.844Z,17.02
2023-03-18T15:04:13.779Z,16.95
2023-03-18T15:05:13.747Z,17.04
2023-03-18T15:06:13.685Z,17.04
2023-03-18T15:07:13.675Z,16.96
2023-03-18T15:08:13.637Z,17.00
2023-03-18T15:09:13.555Z,17.04
2023-03-18T15:10:13.530Z,16.97
2023-03-18T15:11:13.502Z,17.04
2023-03-18T15:12:13.474Z,17.03
2023-03-18T15:13:13.470Z,16.87
2023-03-18T15:14:13.391Z,16.94
2023-03-18T15:15:13.342Z,17.07
2023-03-18T15:16:13.308Z,17.00
2023-03-18T15:17:13.322Z,17.13
2023-03-18T15:18:13.237Z,17.11
2023-03-18T15:19:13.172Z,17.08
2023-03-18T15:20:14.120Z,17.04
2023-03-18T15:21:14.141Z,17.16
2023-03-18T15:22:13.104Z,17.19
2023-03-18T15:23:13.056Z,17.20
2023-03-18T15:24:13.003Z,17.19
2023-03-18T15:25:12.945Z,17.17
2023-03-18T15:26:12.926Z,17.23
2023-03-18T15:27:12.870Z,17.19
2023-03-18T15:28:12.842Z,17.17
2023-03-18T15:29:12.806Z,17.25
2023-03-18T15:30:12.770Z,17.22
2023-03-18T15:31:12.794Z,17.26
2023-03-18T15:32:12.736Z,17.18
2023-03-18T15:33:12.795Z,17.26
2023-03-18T15:34:12.664Z,17.31
2023-03-18T15:35:13.004Z,17.34
2023-03-18T15:36:12.607Z,17.36
2023-03-18T15:37:12.503Z,17.34
2023-03-18T15:38:12.546Z,17.28
2023-03-18T15:39:12.452Z,17.37
2023-03-18T15:40:12.419Z,17.39
2023-03-18T15:41:12.381Z,17.47
2023-03-18T15:42:12.356Z,17.37
2023-03-18T15:43:12.335Z,17.41
2023-03-18T15:44:12.321Z,17.45
2023-03-18T15:45:12.284Z,17.48
2023-03-18T15:46:12.263Z,17.37
2023-03-18T15:47:12.202Z,17.46
2023-03-18T15:48:12.167Z,17.48
2023-03-18T15:49:12.116Z,17.56
2023-03-18T15:50:12.080Z,17.51
2023-03-18T15:51:12.043Z,17.52
2023-03-18T15:52:12.030Z,17.57
2023-03-18T15:53:12.061Z,17.52
2023-03-18T15:54:11.954Z,17.56
2023-03-18T15:55:11.924Z,17.56
2023-03-18T15:56:12.049Z,17.59
2023-03-18T15:57:11.861Z,17.57
2023-03-18T15:58:11.852Z,17.63
2023-03-18T15:59:11.794Z,17.65
2023-03-18T16:00:11.786Z,17.58
2023-03-18T16:01:11.756Z,17.63
2023-03-18T16:02:11.700Z,17.68
2023-03-18T16:03:11.797Z,17.66
2023-03-18T16:04:11.639Z,17.69
2023-03-18T16:05:11.607Z,17.71
2023-03-18T16:06:11.667Z,17.69
2023-03-18T16:07:11.539Z,17.72
2023-03-18T16:08:11.626Z,17.80
2023-03-18T16:09:11.529Z,17.75
2023-03-18T16:10:11.497Z,17.83
2023-03-18T16:11:11.592Z,17.80
2023-03-18T16:12:11.365Z,17.82
2023-03-18T16:13:11.349Z,17.80
2023-03-18T16:14:11.335Z,17.81
2023-03-18T16:15:11.260Z,17.85
2023-03-18T16:16:11.337Z,17.81
2023-03-18T16:17:11.234Z,17.91
2023-03-18T16:18:11.157Z,17.92
2023-03-18T16:19:11.142Z,17.92
2023-03-18T16:20:11.074Z,17.90
2023-03-18T16:21:11.025Z,17.92
2023-03-18T16:22:11.036Z,17.89
2023-03-18T16:23:10.963Z,17.95
2023-03-18T16:24:11.111Z,17.97
2023-03-18T16:25:10.949Z,17.98
2023-03-18T16:26:10.851Z,17.98
2023-03-18T16:27:10.841Z,17.98
2023-03-18T16:28:10.791Z,17.98
2023-03-18T16:29:10.759Z,18.03
2023-03-18T16:30:10.800Z,18.00
2023-03-18T16:31:10.670Z,18.05
2023-03-18T16:32:10.689Z,18.01
2023-03-18T16:33:10.634Z,18.00
2023-03-18T16:34:10.714Z,18.03
2023-03-18T16:35:10.578Z,18.09
2023-03-18T16:36:10.531Z,18.10
2023-03-18T16:37:10.472Z,18.09
2023-03-18T16:38:10.461Z,18.09
2023-03-18T16:39:10.444Z,18.10
2023-03-18T16:40:10.405Z,18.15
2023-03-18T16:41:10.352Z,18.06
2023-03-18T16:42:10.371Z,18.09
2023-03-18T16:43:10.301Z,18.06
2023-03-18T16:44:10.291Z,18.15
2023-03-18T16:45:10.239Z,18.17
2023-03-18T16:46:10.270Z,18.17
2023-03-18T16:47:10.154Z,18.18
2023-03-18T16:48:10.134Z,18.13
2023-03-18T16:49:10.109Z,18.17